sensor_id;sensor_type;location;lat;lon;timestamp;temperature;humidity
19930;DHT22;10127;47.780;9.606;2023-06-14T00:00:07;15.20;75.70
19930;DHT22;10127;47.780;9.606;2023-06-14T00:02:33;15.20;75.90
19930;DHT22;10127;47.780;9.606;2023-06-14T00:04:58;15.10;76.30
19930;DHT22;10127;47.780;9.606;2023-06-14T00:07:37;15.10;76.50
19930;DHT22;10127;47.780;9.606;2023-06-14T00:10:04;15.10;76.30
19930;DHT22;10127;47.780;9.606;2023-06-14T00:12:30;15.10;76.40
19930;DHT22;10127;47.780;9.606;2023-06-14T00:14:56;15.10;76.60
19930;DHT22;10127;47.780;9.606;2023-06-14T00:17:22;15.00;76.90
19930;DHT22;10127;47.780;9.606;2023-06-14T00:19:48;14.90;77.10
19930;DHT22;10127;47.780;9.606;2023-06-14T00:22:14;14.80;77.50
19930;DHT22;10127;47.780;9.606;2023-06-14T00:24:40;14.70;77.70
19930;DHT22;10127;47.780;9.606;2023-06-14T00:27:06;14.70;77.80
19930;DHT22;10127;47.780;9.606;2023-06-14T00:29:32;14.60;78.10
19930;DHT22;10127;47.780;9.606;2023-06-14T00:31:58;14.60;78.50
19930;DHT22;10127;47.780;9.606;2023-06-14T00:34:23;14.50;78.80
19930;DHT22;10127;47.780;9.606;2023-06-14T00:36:49;14.50;78.80
19930;DHT22;10127;47.780;9.606;2023-06-14T00:39:14;14.40;79.00
19930;DHT22;10127;47.780;9.606;2023-06-14T00:41:40;14.40;79.10
19930;DHT22;10127;47.780;9.606;2023-06-14T00:44:06;14.40;79.40
19930;DHT22;10127;47.780;9.606;2023-06-14T00:46:31;14.40;79.60
19930;DHT22;10127;47.780;9.606;2023-06-14T00:48:58;14.40;79.30
19930;DHT22;10127;47.780;9.606;2023-06-14T00:51:25;14.40;79.10
19930;DHT22;10127;47.780;9.606;2023-06-14T00:53:51;14.30;79.20
19930;DHT22;10127;47.780;9.606;2023-06-14T00:56:17;14.30;79.30
19930;DHT22;10127;47.780;9.606;2023-06-14T00:58:46;14.30;79.60
19930;DHT22;10127;47.780;9.606;2023-06-14T01:01:11;14.30;79.50
19930;DHT22;10127;47.780;9.606;2023-06-14T01:03:37;14.20;79.80
19930;DHT22;10127;47.780;9.606;2023-06-14T01:06:24;14.10;80.30
19930;DHT22;10127;47.780;9.606;2023-06-14T01:09:08;13.90;80.90
19930;DHT22;10127;47.780;9.606;2023-06-14T01:11:44;13.90;81.20
19930;DHT22;10127;47.780;9.606;2023-06-14T01:14:12;13.90;81.30
19930;DHT22;10127;47.780;9.606;2023-06-14T01:16:39;13.80;81.50
19930;DHT22;10127;47.780;9.606;2023-06-14T01:19:06;13.80;81.70
19930;DHT22;10127;47.780;9.606;2023-06-14T01:21:37;13.70;82.00
19930;DHT22;10127;47.780;9.606;2023-06-14T01:24:08;13.60;82.40
19930;DHT22;10127;47.780;9.606;2023-06-14T01:26:34;13.50;82.70
19930;DHT22;10127;47.780;9.606;2023-06-14T01:29:03;13.40;83.30
19930;DHT22;10127;47.780;9.606;2023-06-14T01:31:29;13.40;83.30
19930;DHT22;10127;47.780;9.606;2023-06-14T01:33:55;13.40;83.40
19930;DHT22;10127;47.780;9.606;2023-06-14T01:36:22;13.40;83.90
19930;DHT22;10127;47.780;9.606;2023-06-14T01:38:50;13.30;83.80
19930;DHT22;10127;47.780;9.606;2023-06-14T01:41:18;13.30;84.60
19930;DHT22;10127;47.780;9.606;2023-06-14T01:43:45;13.30;83.90
19930;DHT22;10127;47.780;9.606;2023-06-14T01:46:11;13.20;84.30
19930;DHT22;10127;47.780;9.606;2023-06-14T01:48:38;13.10;84.40
19930;DHT22;10127;47.780;9.606;2023-06-14T01:51:11;13.10;84.30
19930;DHT22;10127;47.780;9.606;2023-06-14T01:53:36;13.20;84.10
19930;DHT22;10127;47.780;9.606;2023-06-14T01:56:02;13.20;84.40
19930;DHT22;10127;47.780;9.606;2023-06-14T01:58:28;13.20;84.30
19930;DHT22;10127;47.780;9.606;2023-06-14T02:00:54;13.10;84.60
19930;DHT22;10127;47.780;9.606;2023-06-14T02:03:21;13.00;84.60
19930;DHT22;10127;47.780;9.606;2023-06-14T02:05:46;13.00;85.00
19930;DHT22;10127;47.780;9.606;2023-06-14T02:08:12;13.00;85.20
19930;DHT22;10127;47.780;9.606;2023-06-14T02:10:38;12.80;85.50
19930;DHT22;10127;47.780;9.606;2023-06-14T02:13:03;12.80;85.50
19930;DHT22;10127;47.780;9.606;2023-06-14T02:15:29;12.80;85.50
19930;DHT22;10127;47.780;9.606;2023-06-14T02:18:00;12.80;85.60
19930;DHT22;10127;47.780;9.606;2023-06-14T02:20:26;12.80;85.80
19930;DHT22;10127;47.780;9.606;2023-06-14T02:22:51;12.70;86.00
19930;DHT22;10127;47.780;9.606;2023-06-14T02:25:17;12.60;86.40
19930;DHT22;10127;47.780;9.606;2023-06-14T02:27:42;12.60;86.50
19930;DHT22;10127;47.780;9.606;2023-06-14T02:30:09;12.50;86.60
19930;DHT22;10127;47.780;9.606;2023-06-14T02:32:34;12.50;86.70
19930;DHT22;10127;47.780;9.606;2023-06-14T02:35:01;12.40;86.90
19930;DHT22;10127;47.780;9.606;2023-06-14T02:37:27;12.40;87.10
19930;DHT22;10127;47.780;9.606;2023-06-14T02:39:52;12.30;87.40
19930;DHT22;10127;47.780;9.606;2023-06-14T02:42:25;12.40;87.50
19930;DHT22;10127;47.780;9.606;2023-06-14T02:44:50;12.30;87.50
19930;DHT22;10127;47.780;9.606;2023-06-14T02:47:23;12.30;87.60
19930;DHT22;10127;47.780;9.606;2023-06-14T02:49:49;12.30;87.60
19930;DHT22;10127;47.780;9.606;2023-06-14T02:52:15;12.40;87.50
19930;DHT22;10127;47.780;9.606;2023-06-14T02:54:41;12.40;87.30
19930;DHT22;10127;47.780;9.606;2023-06-14T02:57:07;12.40;87.10
19930;DHT22;10127;47.780;9.606;2023-06-14T02:59:33;12.40;86.80
19930;DHT22;10127;47.780;9.606;2023-06-14T03:01:59;12.50;86.70
19930;DHT22;10127;47.780;9.606;2023-06-14T03:04:25;12.50;86.50
19930;DHT22;10127;47.780;9.606;2023-06-14T03:06:52;12.50;86.60
19930;DHT22;10127;47.780;9.606;2023-06-14T03:09:19;12.60;86.30
19930;DHT22;10127;47.780;9.606;2023-06-14T03:11:45;12.70;85.90
19930;DHT22;10127;47.780;9.606;2023-06-14T03:14:10;12.70;85.60
19930;DHT22;10127;47.780;9.606;2023-06-14T03:16:37;12.60;85.80
19930;DHT22;10127;47.780;9.606;2023-06-14T03:19:02;12.60;86.10
19930;DHT22;10127;47.780;9.606;2023-06-14T03:21:28;12.60;86.00
19930;DHT22;10127;47.780;9.606;2023-06-14T03:23:54;12.50;86.30
19930;DHT22;10127;47.780;9.606;2023-06-14T03:26:20;12.50;86.50
19930;DHT22;10127;47.780;9.606;2023-06-14T03:28:46;12.50;86.70
19930;DHT22;10127;47.780;9.606;2023-06-14T03:31:12;12.50;86.50
19930;DHT22;10127;47.780;9.606;2023-06-14T03:33:38;12.60;86.40
19930;DHT22;10127;47.780;9.606;2023-06-14T03:36:11;12.60;86.60
19930;DHT22;10127;47.780;9.606;2023-06-14T03:38:36;12.60;86.90
19930;DHT22;10127;47.780;9.606;2023-06-14T03:41:02;12.50;87.00
19930;DHT22;10127;47.780;9.606;2023-06-14T03:43:28;12.50;87.00
19930;DHT22;10127;47.780;9.606;2023-06-14T03:45:55;12.60;86.90
19930;DHT22;10127;47.780;9.606;2023-06-14T03:48:21;12.60;86.90
19930;DHT22;10127;47.780;9.606;2023-06-14T03:50:46;12.60;87.20
19930;DHT22;10127;47.780;9.606;2023-06-14T03:53:12;12.60;87.20
19930;DHT22;10127;47.780;9.606;2023-06-14T03:55:38;12.50;87.20
19930;DHT22;10127;47.780;9.606;2023-06-14T03:58:04;12.50;87.70
19930;DHT22;10127;47.780;9.606;2023-06-14T04:00:30;12.50;87.70
19930;DHT22;10127;47.780;9.606;2023-06-14T04:02:57;12.60;87.60
19930;DHT22;10127;47.780;9.606;2023-06-14T04:05:22;12.60;88.00
19930;DHT22;10127;47.780;9.606;2023-06-14T04:07:51;13.00;89.20
19930;DHT22;10127;47.780;9.606;2023-06-14T04:10:17;13.30;89.30
19930;DHT22;10127;47.780;9.606;2023-06-14T04:12:43;13.40;87.70
19930;DHT22;10127;47.780;9.606;2023-06-14T04:15:09;13.60;88.00
19930;DHT22;10127;47.780;9.606;2023-06-14T04:17:36;13.70;86.90
19930;DHT22;10127;47.780;9.606;2023-06-14T04:20:03;13.60;85.90
19930;DHT22;10127;47.780;9.606;2023-06-14T04:22:34;13.70;87.30
19930;DHT22;10127;47.780;9.606;2023-06-14T04:25:02;13.70;86.00
19930;DHT22;10127;47.780;9.606;2023-06-14T04:27:27;13.80;86.10
19930;DHT22;10127;47.780;9.606;2023-06-14T04:29:54;14.00;86.30
19930;DHT22;10127;47.780;9.606;2023-06-14T04:32:25;13.90;84.60
19930;DHT22;10127;47.780;9.606;2023-06-14T04:34:55;14.60;83.40
19930;DHT22;10127;47.780;9.606;2023-06-14T04:37:23;15.90;80.30
19930;DHT22;10127;47.780;9.606;2023-06-14T04:39:49;16.30;77.60
19930;DHT22;10127;47.780;9.606;2023-06-14T04:42:15;15.90;78.50
19930;DHT22;10127;47.780;9.606;2023-06-14T04:44:42;15.50;80.00
19930;DHT22;10127;47.780;9.606;2023-06-14T04:47:09;15.20;80.20
19930;DHT22;10127;47.780;9.606;2023-06-14T04:49:35;15.10;81.30
19930;DHT22;10127;47.780;9.606;2023-06-14T04:52:00;14.90;82.40
19930;DHT22;10127;47.780;9.606;2023-06-14T04:54:27;14.90;83.60
19930;DHT22;10127;47.780;9.606;2023-06-14T04:56:53;14.90;83.10
19930;DHT22;10127;47.780;9.606;2023-06-14T04:59:21;14.80;83.30
19930;DHT22;10127;47.780;9.606;2023-06-14T05:01:49;14.70;83.20
19930;DHT22;10127;47.780;9.606;2023-06-14T05:04:15;14.70;83.80
19930;DHT22;10127;47.780;9.606;2023-06-14T05:06:42;14.80;83.90
19930;DHT22;10127;47.780;9.606;2023-06-14T05:09:10;15.00;83.50
19930;DHT22;10127;47.780;9.606;2023-06-14T05:11:36;15.00;82.60
19930;DHT22;10127;47.780;9.606;2023-06-14T05:14:10;15.10;82.60
19930;DHT22;10127;47.780;9.606;2023-06-14T05:16:36;15.20;82.00
19930;DHT22;10127;47.780;9.606;2023-06-14T05:19:03;15.30;82.40
19930;DHT22;10127;47.780;9.606;2023-06-14T05:21:30;15.20;82.10
19930;DHT22;10127;47.780;9.606;2023-06-14T05:23:56;15.40;82.00
19930;DHT22;10127;47.780;9.606;2023-06-14T05:26:21;15.40;81.50
19930;DHT22;10127;47.780;9.606;2023-06-14T05:28:49;15.20;81.70
19930;DHT22;10127;47.780;9.606;2023-06-14T05:31:25;15.30;82.30
19930;DHT22;10127;47.780;9.606;2023-06-14T05:33:58;15.30;81.60
19930;DHT22;10127;47.780;9.606;2023-06-14T05:36:23;15.30;82.10
19930;DHT22;10127;47.780;9.606;2023-06-14T05:38:49;15.30;81.70
19930;DHT22;10127;47.780;9.606;2023-06-14T05:41:16;15.30;82.40
19930;DHT22;10127;47.780;9.606;2023-06-14T05:43:42;15.50;82.40
19930;DHT22;10127;47.780;9.606;2023-06-14T05:46:07;15.40;82.20
19930;DHT22;10127;47.780;9.606;2023-06-14T05:48:33;15.60;81.70
19930;DHT22;10127;47.780;9.606;2023-06-14T05:50:58;15.60;82.20
19930;DHT22;10127;47.780;9.606;2023-06-14T05:53:24;15.60;81.80
19930;DHT22;10127;47.780;9.606;2023-06-14T05:55:50;15.50;81.50
19930;DHT22;10127;47.780;9.606;2023-06-14T05:58:20;15.60;81.30
19930;DHT22;10127;47.780;9.606;2023-06-14T06:00:46;15.50;81.90
19930;DHT22;10127;47.780;9.606;2023-06-14T06:03:12;15.60;81.70
19930;DHT22;10127;47.780;9.606;2023-06-14T06:05:38;15.60;82.00
19930;DHT22;10127;47.780;9.606;2023-06-14T06:08:04;15.80;81.80
19930;DHT22;10127;47.780;9.606;2023-06-14T06:10:30;15.70;81.60
19930;DHT22;10127;47.780;9.606;2023-06-14T06:12:56;15.80;81.80
19930;DHT22;10127;47.780;9.606;2023-06-14T06:15:21;15.80;81.70
19930;DHT22;10127;47.780;9.606;2023-06-14T06:17:47;15.90;81.80
19930;DHT22;10127;47.780;9.606;2023-06-14T06:20:12;16.00;81.90
19930;DHT22;10127;47.780;9.606;2023-06-14T06:22:38;16.10;81.50
19930;DHT22;10127;47.780;9.606;2023-06-14T06:25:05;16.10;81.60
19930;DHT22;10127;47.780;9.606;2023-06-14T06:27:31;16.30;81.70
19930;DHT22;10127;47.780;9.606;2023-06-14T06:29:57;16.40;81.10
19930;DHT22;10127;47.780;9.606;2023-06-14T06:32:22;16.70;80.90
19930;DHT22;10127;47.780;9.606;2023-06-14T06:34:48;16.80;80.40
19930;DHT22;10127;47.780;9.606;2023-06-14T06:37:14;16.90;80.00
19930;DHT22;10127;47.780;9.606;2023-06-14T06:39:39;17.00;80.10
19930;DHT22;10127;47.780;9.606;2023-06-14T06:42:05;17.00;79.60
19930;DHT22;10127;47.780;9.606;2023-06-14T06:44:32;17.00;79.90
19930;DHT22;10127;47.780;9.606;2023-06-14T06:46:58;17.10;80.10
19930;DHT22;10127;47.780;9.606;2023-06-14T06:49:24;17.20;79.60
19930;DHT22;10127;47.780;9.606;2023-06-14T06:52:04;17.30;79.40
19930;DHT22;10127;47.780;9.606;2023-06-14T06:54:30;17.50;79.00
19930;DHT22;10127;47.780;9.606;2023-06-14T06:56:56;17.50;78.40
19930;DHT22;10127;47.780;9.606;2023-06-14T06:59:21;17.60;78.50
19930;DHT22;10127;47.780;9.606;2023-06-14T07:01:47;17.70;78.30
19930;DHT22;10127;47.780;9.606;2023-06-14T07:04:13;17.90;78.20
19930;DHT22;10127;47.780;9.606;2023-06-14T07:06:38;17.90;78.10
19930;DHT22;10127;47.780;9.606;2023-06-14T07:09:04;18.10;77.70
19930;DHT22;10127;47.780;9.606;2023-06-14T07:11:33;18.20;77.60
19930;DHT22;10127;47.780;9.606;2023-06-14T07:13:59;18.30;77.10
19930;DHT22;10127;47.780;9.606;2023-06-14T07:16:24;18.30;77.20
19930;DHT22;10127;47.780;9.606;2023-06-14T07:18:51;18.40;77.00
19930;DHT22;10127;47.780;9.606;2023-06-14T07:21:16;18.50;76.30
19930;DHT22;10127;47.780;9.606;2023-06-14T07:23:42;18.50;76.20
19930;DHT22;10127;47.780;9.606;2023-06-14T07:26:08;18.60;76.40
19930;DHT22;10127;47.780;9.606;2023-06-14T07:28:34;18.60;76.30
19930;DHT22;10127;47.780;9.606;2023-06-14T07:30:59;18.70;76.20
19930;DHT22;10127;47.780;9.606;2023-06-14T07:33:25;18.70;75.80
19930;DHT22;10127;47.780;9.606;2023-06-14T07:35:50;18.80;75.70
19930;DHT22;10127;47.780;9.606;2023-06-14T07:38:17;18.90;75.40
19930;DHT22;10127;47.780;9.606;2023-06-14T07:40:43;19.10;75.00
19930;DHT22;10127;47.780;9.606;2023-06-14T07:43:09;19.30;74.40
19930;DHT22;10127;47.780;9.606;2023-06-14T07:45:34;19.40;73.10
19930;DHT22;10127;47.780;9.606;2023-06-14T07:48:00;19.50;72.60
19930;DHT22;10127;47.780;9.606;2023-06-14T07:50:25;19.60;72.30
19930;DHT22;10127;47.780;9.606;2023-06-14T07:52:51;19.70;72.10
19930;DHT22;10127;47.780;9.606;2023-06-14T07:55:17;19.70;72.00
19930;DHT22;10127;47.780;9.606;2023-06-14T07:57:42;19.80;71.90
19930;DHT22;10127;47.780;9.606;2023-06-14T08:00:10;19.90;70.50
19930;DHT22;10127;47.780;9.606;2023-06-14T08:02:43;20.00;70.90
19930;DHT22;10127;47.780;9.606;2023-06-14T08:05:10;20.10;70.40
19930;DHT22;10127;47.780;9.606;2023-06-14T08:07:39;20.10;69.80
19930;DHT22;10127;47.780;9.606;2023-06-14T08:10:06;20.20;68.90
19930;DHT22;10127;47.780;9.606;2023-06-14T08:12:33;20.40;68.90
19930;DHT22;10127;47.780;9.606;2023-06-14T08:14:59;20.50;68.80
19930;DHT22;10127;47.780;9.606;2023-06-14T08:17:25;20.50;67.10
19930;DHT22;10127;47.780;9.606;2023-06-14T08:19:50;20.60;64.90
19930;DHT22;10127;47.780;9.606;2023-06-14T08:22:17;20.80;64.20
19930;DHT22;10127;47.780;9.606;2023-06-14T08:24:43;20.80;60.50
19930;DHT22;10127;47.780;9.606;2023-06-14T08:27:09;21.00;59.40
19930;DHT22;10127;47.780;9.606;2023-06-14T08:29:35;21.00;59.60
19930;DHT22;10127;47.780;9.606;2023-06-14T08:32:04;21.00;59.20
19930;DHT22;10127;47.780;9.606;2023-06-14T08:34:30;21.20;59.40
19930;DHT22;10127;47.780;9.606;2023-06-14T08:36:56;21.20;58.80
19930;DHT22;10127;47.780;9.606;2023-06-14T08:39:21;21.30;58.20
19930;DHT22;10127;47.780;9.606;2023-06-14T08:41:47;21.30;57.70
19930;DHT22;10127;47.780;9.606;2023-06-14T08:44:16;21.40;57.00
19930;DHT22;10127;47.780;9.606;2023-06-14T08:46:43;21.50;57.30
19930;DHT22;10127;47.780;9.606;2023-06-14T08:49:12;21.60;57.40
19930;DHT22;10127;47.780;9.606;2023-06-14T08:51:39;21.60;56.00
19930;DHT22;10127;47.780;9.606;2023-06-14T08:54:06;21.70;55.30
19930;DHT22;10127;47.780;9.606;2023-06-14T08:56:32;21.70;56.10
19930;DHT22;10127;47.780;9.606;2023-06-14T08:58:59;21.80;55.20
19930;DHT22;10127;47.780;9.606;2023-06-14T09:01:33;21.70;55.40
19930;DHT22;10127;47.780;9.606;2023-06-14T09:03:59;21.80;54.90
19930;DHT22;10127;47.780;9.606;2023-06-14T09:06:26;21.90;54.90
19930;DHT22;10127;47.780;9.606;2023-06-14T09:08:54;21.90;54.40
19930;DHT22;10127;47.780;9.606;2023-06-14T09:11:21;21.90;54.60
19930;DHT22;10127;47.780;9.606;2023-06-14T09:13:48;21.90;55.60
19930;DHT22;10127;47.780;9.606;2023-06-14T09:16:14;22.00;55.50
19930;DHT22;10127;47.780;9.606;2023-06-14T09:18:42;22.00;54.80
19930;DHT22;10127;47.780;9.606;2023-06-14T09:21:13;22.10;55.40
19930;DHT22;10127;47.780;9.606;2023-06-14T09:23:46;22.10;54.80
19930;DHT22;10127;47.780;9.606;2023-06-14T09:26:17;22.20;55.10
19930;DHT22;10127;47.780;9.606;2023-06-14T09:28:49;22.30;54.70
19930;DHT22;10127;47.780;9.606;2023-06-14T09:31:19;22.20;55.00
19930;DHT22;10127;47.780;9.606;2023-06-14T09:33:46;22.10;54.30
19930;DHT22;10127;47.780;9.606;2023-06-14T09:36:18;22.20;54.60
19930;DHT22;10127;47.780;9.606;2023-06-14T09:38:59;22.20;54.50
19930;DHT22;10127;47.780;9.606;2023-06-14T09:44:03;22.30;54.70
19930;DHT22;10127;47.780;9.606;2023-06-14T09:46:30;22.20;54.30
19930;DHT22;10127;47.780;9.606;2023-06-14T09:48:56;22.30;54.90
19930;DHT22;10127;47.780;9.606;2023-06-14T09:51:26;22.40;54.80
19930;DHT22;10127;47.780;9.606;2023-06-14T09:53:52;22.40;54.40
19930;DHT22;10127;47.780;9.606;2023-06-14T09:56:28;22.50;54.40
19930;DHT22;10127;47.780;9.606;2023-06-14T09:58:56;22.50;53.90
19930;DHT22;10127;47.780;9.606;2023-06-14T10:01:29;22.60;54.20
19930;DHT22;10127;47.780;9.606;2023-06-14T10:04:02;22.70;53.50
19930;DHT22;10127;47.780;9.606;2023-06-14T10:06:29;22.60;53.20
19930;DHT22;10127;47.780;9.606;2023-06-14T10:08:57;22.60;53.90
19930;DHT22;10127;47.780;9.606;2023-06-14T10:11:28;22.70;54.30
19930;DHT22;10127;47.780;9.606;2023-06-14T10:13:58;22.80;54.00
19930;DHT22;10127;47.780;9.606;2023-06-14T10:16:32;22.70;53.90
19930;DHT22;10127;47.780;9.606;2023-06-14T10:22:02;22.60;54.30
19930;DHT22;10127;47.780;9.606;2023-06-14T10:24:32;22.70;54.30
19930;DHT22;10127;47.780;9.606;2023-06-14T10:26:59;22.80;54.60
19930;DHT22;10127;47.780;9.606;2023-06-14T10:29:27;23.00;54.00
19930;DHT22;10127;47.780;9.606;2023-06-14T10:31:58;23.00;54.00
19930;DHT22;10127;47.780;9.606;2023-06-14T10:37:06;23.10;53.10
19930;DHT22;10127;47.780;9.606;2023-06-14T10:39:40;23.10;53.60
19930;DHT22;10127;47.780;9.606;2023-06-14T10:42:09;23.10;53.90
19930;DHT22;10127;47.780;9.606;2023-06-14T10:44:43;23.10;53.70
19930;DHT22;10127;47.780;9.606;2023-06-14T10:47:21;23.10;53.80
19930;DHT22;10127;47.780;9.606;2023-06-14T10:52:32;23.10;54.20
19930;DHT22;10127;47.780;9.606;2023-06-14T10:55:13;23.10;53.50
19930;DHT22;10127;47.780;9.606;2023-06-14T10:57:42;23.10;53.10
19930;DHT22;10127;47.780;9.606;2023-06-14T11:00:09;23.20;54.30
19930;DHT22;10127;47.780;9.606;2023-06-14T11:05:52;23.40;54.20
19930;DHT22;10127;47.780;9.606;2023-06-14T11:10:47;23.40;54.10
19930;DHT22;10127;47.780;9.606;2023-06-14T11:13:16;23.50;53.90
19930;DHT22;10127;47.780;9.606;2023-06-14T11:15:46;23.50;54.70
19930;DHT22;10127;47.780;9.606;2023-06-14T11:18:13;23.50;54.20
19930;DHT22;10127;47.780;9.606;2023-06-14T11:20:40;23.50;53.60
19930;DHT22;10127;47.780;9.606;2023-06-14T11:23:05;23.50;54.20
19930;DHT22;10127;47.780;9.606;2023-06-14T11:25:32;23.60;54.30
19930;DHT22;10127;47.780;9.606;2023-06-14T11:27:57;23.70;54.00
19930;DHT22;10127;47.780;9.606;2023-06-14T11:30:24;23.60;54.10
19930;DHT22;10127;47.780;9.606;2023-06-14T11:32:54;23.70;53.80
19930;DHT22;10127;47.780;9.606;2023-06-14T11:35:22;23.70;54.10
19930;DHT22;10127;47.780;9.606;2023-06-14T11:37:55;23.80;53.40
19930;DHT22;10127;47.780;9.606;2023-06-14T11:40:24;23.80;53.40
19930;DHT22;10127;47.780;9.606;2023-06-14T11:42:49;23.90;53.00
19930;DHT22;10127;47.780;9.606;2023-06-14T11:45:15;24.00;52.80
19930;DHT22;10127;47.780;9.606;2023-06-14T11:47:41;23.90;53.10
19930;DHT22;10127;47.780;9.606;2023-06-14T11:50:08;23.90;52.80
19930;DHT22;10127;47.780;9.606;2023-06-14T11:52:41;23.80;52.80
19930;DHT22;10127;47.780;9.606;2023-06-14T11:55:07;23.70;53.20
19930;DHT22;10127;47.780;9.606;2023-06-14T11:57:36;23.90;53.00
19930;DHT22;10127;47.780;9.606;2023-06-14T12:00:07;24.10;52.80
19930;DHT22;10127;47.780;9.606;2023-06-14T12:02:37;24.20;52.10
19930;DHT22;10127;47.780;9.606;2023-06-14T12:05:05;24.10;51.90
19930;DHT22;10127;47.780;9.606;2023-06-14T12:07:33;24.20;52.40
19930;DHT22;10127;47.780;9.606;2023-06-14T12:12:25;24.30;52.40
19930;DHT22;10127;47.780;9.606;2023-06-14T12:14:51;24.40;52.70
19930;DHT22;10127;47.780;9.606;2023-06-14T12:17:17;24.30;52.60
19930;DHT22;10127;47.780;9.606;2023-06-14T12:19:45;24.40;51.10
19930;DHT22;10127;47.780;9.606;2023-06-14T12:22:12;24.50;50.50
19930;DHT22;10127;47.780;9.606;2023-06-14T12:24:38;24.60;51.00
19930;DHT22;10127;47.780;9.606;2023-06-14T12:27:11;24.70;51.00
19930;DHT22;10127;47.780;9.606;2023-06-14T12:29:42;24.80;52.00
19930;DHT22;10127;47.780;9.606;2023-06-14T12:32:11;24.70;51.70
19930;DHT22;10127;47.780;9.606;2023-06-14T12:34:37;24.70;51.90
19930;DHT22;10127;47.780;9.606;2023-06-14T12:37:02;24.80;52.20
19930;DHT22;10127;47.780;9.606;2023-06-14T12:39:30;24.80;51.90
19930;DHT22;10127;47.780;9.606;2023-06-14T12:42:05;24.90;51.20
19930;DHT22;10127;47.780;9.606;2023-06-14T12:44:30;25.00;50.80
19930;DHT22;10127;47.780;9.606;2023-06-14T12:46:59;25.00;50.90
19930;DHT22;10127;47.780;9.606;2023-06-14T12:49:24;25.00;50.10
19930;DHT22;10127;47.780;9.606;2023-06-14T12:51:50;25.10;50.50
19930;DHT22;10127;47.780;9.606;2023-06-14T12:54:15;25.30;50.90
19930;DHT22;10127;47.780;9.606;2023-06-14T12:56:41;25.20;50.70
19930;DHT22;10127;47.780;9.606;2023-06-14T12:59:08;25.10;51.10
19930;DHT22;10127;47.780;9.606;2023-06-14T13:01:34;25.00;51.40
19930;DHT22;10127;47.780;9.606;2023-06-14T13:03:59;25.00;51.40
19930;DHT22;10127;47.780;9.606;2023-06-14T13:06:25;24.90;51.50
19930;DHT22;10127;47.780;9.606;2023-06-14T13:08:51;25.00;51.80
19930;DHT22;10127;47.780;9.606;2023-06-14T13:11:16;25.10;51.40
19930;DHT22;10127;47.780;9.606;2023-06-14T13:13:42;25.20;50.50
19930;DHT22;10127;47.780;9.606;2023-06-14T13:16:07;25.30;51.00
19930;DHT22;10127;47.780;9.606;2023-06-14T13:18:40;25.30;51.00
19930;DHT22;10127;47.780;9.606;2023-06-14T13:21:05;25.30;50.10
19930;DHT22;10127;47.780;9.606;2023-06-14T13:23:31;25.20;50.20
19930;DHT22;10127;47.780;9.606;2023-06-14T13:25:56;25.10;50.70
19930;DHT22;10127;47.780;9.606;2023-06-14T13:28:22;25.30;50.60
19930;DHT22;10127;47.780;9.606;2023-06-14T13:30:48;25.20;50.20
19930;DHT22;10127;47.780;9.606;2023-06-14T13:33:14;25.30;50.80
19930;DHT22;10127;47.780;9.606;2023-06-14T13:35:39;25.40;50.80
19930;DHT22;10127;47.780;9.606;2023-06-14T13:38:05;25.50;49.80
19930;DHT22;10127;47.780;9.606;2023-06-14T13:40:31;25.30;50.00
19930;DHT22;10127;47.780;9.606;2023-06-14T13:42:56;25.40;50.50
19930;DHT22;10127;47.780;9.606;2023-06-14T13:45:22;25.40;49.70
19930;DHT22;10127;47.780;9.606;2023-06-14T13:47:47;25.30;49.90
19930;DHT22;10127;47.780;9.606;2023-06-14T13:50:14;25.30;50.00
19930;DHT22;10127;47.780;9.606;2023-06-14T13:52:39;25.30;50.10
19930;DHT22;10127;47.780;9.606;2023-06-14T13:55:05;25.30;50.00
19930;DHT22;10127;47.780;9.606;2023-06-14T13:57:31;25.30;50.30
19930;DHT22;10127;47.780;9.606;2023-06-14T13:59:58;25.50;50.90
19930;DHT22;10127;47.780;9.606;2023-06-14T14:02:27;25.60;49.70
19930;DHT22;10127;47.780;9.606;2023-06-14T14:04:54;25.60;49.50
19930;DHT22;10127;47.780;9.606;2023-06-14T14:07:20;25.60;49.80
19930;DHT22;10127;47.780;9.606;2023-06-14T14:09:47;25.50;50.30
19930;DHT22;10127;47.780;9.606;2023-06-14T14:12:13;25.40;50.30
19930;DHT22;10127;47.780;9.606;2023-06-14T14:14:40;25.50;51.00
19930;DHT22;10127;47.780;9.606;2023-06-14T14:17:06;25.60;50.20
19930;DHT22;10127;47.780;9.606;2023-06-14T14:19:32;25.70;50.40
19930;DHT22;10127;47.780;9.606;2023-06-14T14:21:58;25.80;50.30
19930;DHT22;10127;47.780;9.606;2023-06-14T14:24:24;25.90;50.20
19930;DHT22;10127;47.780;9.606;2023-06-14T14:26:50;25.90;50.40
19930;DHT22;10127;47.780;9.606;2023-06-14T14:29:19;26.00;49.60
19930;DHT22;10127;47.780;9.606;2023-06-14T14:31:44;26.10;49.50
19930;DHT22;10127;47.780;9.606;2023-06-14T14:34:10;26.30;49.70
19930;DHT22;10127;47.780;9.606;2023-06-14T14:36:35;26.30;49.90
19930;DHT22;10127;47.780;9.606;2023-06-14T14:39:03;26.10;49.10
19930;DHT22;10127;47.780;9.606;2023-06-14T14:41:29;26.00;49.80
19930;DHT22;10127;47.780;9.606;2023-06-14T14:43:55;26.20;50.10
19930;DHT22;10127;47.780;9.606;2023-06-14T14:46:20;26.30;50.30
19930;DHT22;10127;47.780;9.606;2023-06-14T14:48:46;26.40;49.30
19930;DHT22;10127;47.780;9.606;2023-06-14T14:51:12;26.60;49.60
19930;DHT22;10127;47.780;9.606;2023-06-14T14:53:37;26.60;48.90
19930;DHT22;10127;47.780;9.606;2023-06-14T14:56:03;26.70;48.70
19930;DHT22;10127;47.780;9.606;2023-06-14T14:58:28;26.80;48.90
19930;DHT22;10127;47.780;9.606;2023-06-14T15:00:54;26.90;48.70
19930;DHT22;10127;47.780;9.606;2023-06-14T15:03:20;26.80;48.80
19930;DHT22;10127;47.780;9.606;2023-06-14T15:05:46;26.80;49.10
19930;DHT22;10127;47.780;9.606;2023-06-14T15:08:12;26.90;49.20
19930;DHT22;10127;47.780;9.606;2023-06-14T15:10:38;26.90;49.20
19930;DHT22;10127;47.780;9.606;2023-06-14T15:13:07;26.80;49.60
19930;DHT22;10127;47.780;9.606;2023-06-14T15:15:34;26.80;49.90
19930;DHT22;10127;47.780;9.606;2023-06-14T15:18:00;27.10;50.10
19930;DHT22;10127;47.780;9.606;2023-06-14T15:20:26;27.20;49.50
19930;DHT22;10127;47.780;9.606;2023-06-14T15:22:51;27.60;49.20
19930;DHT22;10127;47.780;9.606;2023-06-14T15:25:18;27.70;48.40
19930;DHT22;10127;47.780;9.606;2023-06-14T15:27:43;27.50;48.00
19930;DHT22;10127;47.780;9.606;2023-06-14T15:30:09;27.70;48.40
19930;DHT22;10127;47.780;9.606;2023-06-14T15:32:35;27.90;47.80
19930;DHT22;10127;47.780;9.606;2023-06-14T15:35:00;27.90;48.00
19930;DHT22;10127;47.780;9.606;2023-06-14T15:37:26;27.80;48.40
19930;DHT22;10127;47.780;9.606;2023-06-14T15:39:52;28.00;48.30
19930;DHT22;10127;47.780;9.606;2023-06-14T15:42:17;27.80;48.00
19930;DHT22;10127;47.780;9.606;2023-06-14T15:44:43;28.20;47.90
19930;DHT22;10127;47.780;9.606;2023-06-14T15:47:09;28.60;47.70